createdAt,value
2023-08-10T00:00:51.916Z,0.00
2023-08-10T00:01:51.660Z,0.00
2023-08-10T00:02:51.704Z,0.00
2023-08-10T00:03:51.778Z,0.00
2023-08-10T00:04:51.625Z,0.00
2023-08-10T00:05:51.601Z,0.00
2023-08-10T00:06:51.599Z,0.00
2023-08-10T00:07:51.576Z,0.00
2023-08-10T00:08:51.560Z,0.00
2023-08-10T00:09:51.548Z,0.00
2023-08-10T00:10:51.532Z,0.00
2023-08-10T00:11:51.747Z,0.00
2023-08-10T00:12:51.515Z,0.00
2023-08-10T00:13:51.500Z,0.00
2023-08-10T00:14:51.481Z,0.00
2023-08-10T00:15:51.489Z,0.00
2023-08-10T00:16:51.569Z,0.00
2023-08-10T00:17:51.499Z,0.00
2023-08-10T00:18:51.441Z,0.00
2023-08-10T00:19:51.450Z,0.00
2023-08-10T00:20:51.403Z,0.00
2023-08-10T00:21:51.386Z,0.00
2023-08-10T00:22:51.375Z,0.00
2023-08-10T00:23:51.363Z,0.00
2023-08-10T00:24:51.366Z,0.00
2023-08-10T00:25:51.332Z,0.00
2023-08-10T00:26:51.320Z,0.00
2023-08-10T00:27:51.317Z,0.00
2023-08-10T00:28:51.296Z,0.00
2023-08-10T00:30:24.725Z,0.00
2023-08-10T00:31:24.808Z,0.00
2023-08-10T00:32:24.732Z,0.00
2023-08-10T00:33:33.488Z,0.00
2023-08-10T00:34:25.686Z,0.00
2023-08-10T00:35:24.779Z,0.00
2023-08-10T00:36:24.786Z,0.00
2023-08-10T00:37:24.832Z,0.00
2023-08-10T00:38:24.611Z,0.00
2023-08-10T00:39:24.595Z,0.00
2023-08-10T00:40:24.586Z,0.00
2023-08-10T00:41:24.569Z,0.00
2023-08-10T00:42:24.566Z,0.00
2023-08-10T00:43:24.545Z,0.00
2023-08-10T00:44:24.539Z,0.00
2023-08-10T00:45:24.520Z,0.00
2023-08-10T00:46:24.849Z,0.00
2023-08-10T00:47:24.488Z,0.00
2023-08-10T00:48:24.480Z,0.00
2023-08-10T00:49:24.615Z,0.00
2023-08-10T00:50:24.605Z,0.00
2023-08-10T00:51:24.551Z,0.00
2023-08-10T00:52:24.429Z,0.00
2023-08-10T00:53:24.413Z,0.00
2023-08-10T00:54:24.402Z,0.00
2023-08-10T00:55:24.381Z,0.00
2023-08-10T00:56:24.377Z,0.00
2023-08-10T00:57:24.371Z,0.00
2023-08-10T00:58:24.601Z,0.00
2023-08-10T00:59:24.347Z,0.00
2023-08-10T01:00:24.320Z,0.00
2023-08-10T01:01:24.324Z,0.00
2023-08-10T01:02:24.301Z,0.00
2023-08-10T01:03:24.357Z,0.00
2023-08-10T01:04:24.273Z,0.00
2023-08-10T01:05:24.268Z,0.00
2023-08-10T01:06:24.245Z,0.00
2023-08-10T01:07:24.354Z,0.00
2023-08-10T01:08:24.209Z,0.00
2023-08-10T01:09:24.198Z,0.00
2023-08-10T01:10:24.198Z,0.00
2023-08-10T01:11:24.179Z,0.00
2023-08-10T01:12:24.169Z,0.00
2023-08-10T01:13:24.351Z,0.00
2023-08-10T01:14:24.141Z,0.00
2023-08-10T01:15:24.119Z,0.00
2023-08-10T01:16:24.576Z,0.00
2023-08-10T01:17:24.096Z,0.00
2023-08-10T01:18:24.078Z,0.00
2023-08-10T01:19:24.213Z,0.00
2023-08-10T01:20:24.050Z,0.00
2023-08-10T01:21:24.037Z,0.00
2023-08-10T01:22:24.330Z,0.00
2023-08-10T01:23:24.044Z,0.00
2023-08-10T01:24:24.025Z,0.00
2023-08-10T01:25:23.991Z,0.00
2023-08-10T01:26:24.072Z,0.00
2023-08-10T01:27:23.969Z,0.00
2023-08-10T01:28:24.023Z,0.00
2023-08-10T01:29:23.965Z,0.00
2023-08-10T01:30:23.946Z,0.00
2023-08-10T01:31:23.956Z,0.00
2023-08-10T01:32:23.903Z,0.00
2023-08-10T01:33:23.882Z,0.00
2023-08-10T01:34:23.863Z,0.00
2023-08-10T01:35:23.855Z,0.00
2023-08-10T01:36:23.835Z,0.00
2023-08-10T01:37:24.048Z,0.00
2023-08-10T01:38:23.823Z,0.00
2023-08-10T01:39:23.831Z,0.00
2023-08-10T01:40:23.788Z,0.00
2023-08-10T01:41:23.777Z,0.00
2023-08-10T01:42:23.765Z,0.00
2023-08-10T01:43:23.760Z,0.00
2023-08-10T01:44:23.737Z,0.00
2023-08-10T01:45:23.725Z,0.00
2023-08-10T01:46:23.767Z,0.00
2023-08-10T01:47:23.694Z,0.00
2023-08-10T01:48:23.728Z,0.00
2023-08-10T01:49:23.666Z,0.00
2023-08-10T01:50:23.880Z,0.00
2023-08-10T01:51:23.649Z,0.00
2023-08-10T01:52:23.652Z,0.00
2023-08-10T01:53:23.620Z,0.00
2023-08-10T01:54:23.599Z,0.00
2023-08-10T01:55:23.622Z,0.00
2023-08-10T01:56:23.592Z,0.00
2023-08-10T01:57:23.558Z,0.00
2023-08-10T01:58:23.544Z,0.00
2023-08-10T01:59:23.683Z,0.00
2023-08-10T02:00:23.519Z,0.00
2023-08-10T02:01:23.563Z,0.00
2023-08-10T02:02:23.496Z,0.00
2023-08-10T02:03:23.490Z,0.00
2023-08-10T02:04:23.467Z,0.00
2023-08-10T02:05:23.455Z,0.00
2023-08-10T02:06:23.468Z,0.00
2023-08-10T02:07:23.433Z,0.00
2023-08-10T02:08:23.421Z,0.00
2023-08-10T02:09:23.405Z,0.00
2023-08-10T02:10:23.384Z,0.00
2023-08-10T02:11:23.395Z,0.00
2023-08-10T02:12:24.326Z,0.00
2023-08-10T02:13:23.344Z,0.00
2023-08-10T02:14:23.334Z,0.00
2023-08-10T02:15:23.320Z,0.00
2023-08-10T02:16:23.355Z,0.00
2023-08-10T02:17:23.292Z,0.00
2023-08-10T02:18:23.280Z,0.00
2023-08-10T02:19:23.272Z,0.00
2023-08-10T02:20:23.260Z,0.00
2023-08-10T02:21:23.246Z,0.00
2023-08-10T02:22:23.226Z,0.00
2023-08-10T02:23:23.213Z,0.00
2023-08-10T02:24:23.200Z,0.00
2023-08-10T02:25:23.184Z,0.00
2023-08-10T02:26:23.402Z,0.00
2023-08-10T02:27:23.185Z,0.00
2023-08-10T02:28:23.150Z,0.00
2023-08-10T02:29:23.139Z,0.00
2023-08-10T02:30:23.351Z,0.00
2023-08-10T02:31:23.159Z,0.00
2023-08-10T02:32:23.097Z,0.00
2023-08-10T02:33:23.083Z,0.00
2023-08-10T02:34:23.065Z,0.00
2023-08-10T02:35:23.053Z,0.00
2023-08-10T02:36:23.039Z,0.00
2023-08-10T02:37:23.021Z,0.00
2023-08-10T02:38:23.062Z,0.00
2023-08-10T02:39:23.021Z,0.00
2023-08-10T02:40:22.994Z,0.00
2023-08-10T02:41:22.999Z,0.00
2023-08-10T02:42:22.968Z,0.00
2023-08-10T02:43:22.979Z,0.00
2023-08-10T02:44:22.932Z,0.00
2023-08-10T02:45:22.967Z,0.00
2023-08-10T02:46:22.947Z,0.00
2023-08-10T02:47:22.896Z,0.00
2023-08-10T02:48:22.886Z,0.00
2023-08-10T02:49:22.896Z,0.00
2023-08-10T02:50:22.856Z,0.00
2023-08-10T02:51:22.841Z,0.00
2023-08-10T02:52:22.831Z,0.00
2023-08-10T02:53:22.813Z,0.00
2023-08-10T02:54:22.837Z,0.00
2023-08-10T02:55:22.853Z,0.00
2023-08-10T02:56:22.782Z,0.00
2023-08-10T02:57:22.759Z,0.00
2023-08-10T02:58:22.742Z,0.00
2023-08-10T02:59:22.845Z,0.00
2023-08-10T03:00:22.743Z,0.00
2023-08-10T03:01:22.738Z,0.00
2023-08-10T03:02:22.706Z,0.00
2023-08-10T03:03:22.687Z,0.00
2023-08-10T03:04:22.764Z,0.00
2023-08-10T03:05:22.872Z,0.00
2023-08-10T03:06:22.644Z,0.00
2023-08-10T03:07:22.643Z,0.00
2023-08-10T03:08:22.620Z,0.00
2023-08-10T03:09:22.604Z,0.00
2023-08-10T03:10:22.595Z,0.00
2023-08-10T03:11:22.573Z,0.00
2023-08-10T03:12:22.561Z,0.00
2023-08-10T03:13:22.573Z,0.00
2023-08-10T03:14:22.533Z,0.00
2023-08-10T03:15:22.558Z,0.00
2023-08-10T03:16:22.561Z,0.00
2023-08-10T03:17:22.499Z,0.00
2023-08-10T03:18:22.479Z,0.00
2023-08-10T03:19:22.465Z,0.00
2023-08-10T03:20:22.451Z,0.00
2023-08-10T03:21:22.448Z,0.00
2023-08-10T03:22:22.431Z,0.00
2023-08-10T03:23:22.420Z,0.00
2023-08-10T03:24:22.405Z,0.00
2023-08-10T03:25:22.392Z,0.00
2023-08-10T03:26:22.374Z,0.00
2023-08-10T03:27:22.511Z,0.00
2023-08-10T03:28:22.399Z,0.00
2023-08-10T03:29:22.341Z,0.00
2023-08-10T03:30:22.315Z,0.00
2023-08-10T03:31:22.435Z,0.00
2023-08-10T03:32:22.322Z,0.00
2023-08-10T03:33:22.284Z,0.00
2023-08-10T03:34:22.264Z,0.00
2023-08-10T03:35:22.270Z,0.00
2023-08-10T03:36:22.267Z,0.00
2023-08-10T03:37:22.225Z,0.00
2023-08-10T03:38:22.249Z,0.00
2023-08-10T03:39:22.215Z,0.00
2023-08-10T03:40:22.189Z,0.00
2023-08-10T03:41:22.174Z,0.00
2023-08-10T03:42:22.167Z,0.00
2023-08-10T03:43:22.153Z,0.00
2023-08-10T03:44:22.141Z,4.00
2023-08-10T03:45:22.135Z,0.00
2023-08-10T03:46:22.145Z,4.00
2023-08-10T03:47:22.211Z,4.00
2023-08-10T03:48:22.075Z,4.00
2023-08-10T03:49:22.066Z,4.00
2023-08-10T03:50:22.055Z,4.00
2023-08-10T03:51:22.055Z,8.00
2023-08-10T03:52:22.030Z,4.00
2023-08-10T03:53:22.011Z,4.00
2023-08-10T03:54:22.012Z,4.00
2023-08-10T03:55:21.997Z,8.00
2023-08-10T03:56:21.975Z,12.00
2023-08-10T03:57:21.962Z,12.00
2023-08-10T03:58:21.951Z,12.00
2023-08-10T03:59:21.939Z,16.00
2023-08-10T04:00:21.921Z,16.00
2023-08-10T04:01:22.005Z,16.00
2023-08-10T04:02:21.892Z,20.00
2023-08-10T04:03:22.059Z,24.00
2023-08-10T04:04:21.874Z,24.00
2023-08-10T04:05:21.849Z,28.00
2023-08-10T04:06:21.840Z,28.00
2023-08-10T04:07:21.832Z,36.00
2023-08-10T04:08:21.812Z,36.00
2023-08-10T04:09:21.802Z,40.00
2023-08-10T04:10:21.785Z,44.00
2023-08-10T04:11:21.783Z,44.00
2023-08-10T04:12:21.765Z,48.00
2023-08-10T04:13:21.746Z,56.00
2023-08-10T04:14:21.768Z,60.00
2023-08-10T04:15:21.732Z,64.00
2023-08-10T04:16:21.707Z,68.00
2023-08-10T04:17:21.725Z,72.00
2023-08-10T04:18:21.679Z,80.00
2023-08-10T04:19:21.712Z,80.00
2023-08-10T04:20:21.665Z,88.00
2023-08-10T04:21:21.639Z,92.00
2023-08-10T04:22:21.646Z,96.00
2023-08-10T04:23:21.612Z,108.00
2023-08-10T04:24:21.603Z,112.00
2023-08-10T04:25:21.587Z,116.00
2023-08-10T04:26:21.571Z,124.00
2023-08-10T04:27:21.553Z,132.00
2023-08-10T04:28:21.561Z,136.00
2023-08-10T04:29:55.200Z,148.00
2023-08-10T04:30:54.986Z,152.00
2023-08-10T04:31:54.955Z,164.00
2023-08-10T04:32:55.141Z,172.00
2023-08-10T04:33:54.908Z,180.00
2023-08-10T04:34:54.931Z,188.00
2023-08-10T04:35:55.179Z,192.00
2023-08-10T04:36:54.871Z,204.00
2023-08-10T04:37:54.975Z,212.00
2023-08-10T04:38:54.839Z,220.00
2023-08-10T04:39:54.823Z,228.00
2023-08-10T04:40:54.811Z,236.00
2023-08-10T04:41:54.802Z,244.00
2023-08-10T04:42:54.792Z,256.00
2023-08-10T04:43:54.784Z,264.00
2023-08-10T04:44:54.763Z,272.00
2023-08-10T04:45:54.762Z,284.00
2023-08-10T04:46:54.826Z,292.00
2023-08-10T04:47:54.744Z,300.00
2023-08-10T04:48:54.698Z,312.00
2023-08-10T04:49:54.685Z,320.00
2023-08-10T04:50:54.690Z,328.00
2023-08-10T04:51:54.660Z,340.00
2023-08-10T04:52:54.643Z,348.00
2023-08-10T04:53:54.630Z,360.00
2023-08-10T04:54:54.914Z,368.00
2023-08-10T04:55:54.606Z,376.00
2023-08-10T04:56:54.590Z,388.00
2023-08-10T04:57:54.575Z,396.00
2023-08-10T04:58:54.569Z,404.00
2023-08-10T04:59:54.648Z,408.00
2023-08-10T05:00:54.537Z,416.00
2023-08-10T05:01:54.565Z,424.00
2023-08-10T05:02:54.749Z,432.00
2023-08-10T05:03:54.524Z,440.00
2023-08-10T05:04:54.479Z,448.00
2023-08-10T05:05:54.472Z,452.00
2023-08-10T05:06:54.577Z,464.00
2023-08-10T05:07:54.434Z,468.00
2023-08-10T05:08:54.427Z,480.00
2023-08-10T05:09:56.668Z,488.00
2023-08-10T05:10:54.396Z,500.00
2023-08-10T05:11:54.645Z,512.00
2023-08-10T05:12:54.369Z,536.00
2023-08-10T05:13:54.364Z,560.00
2023-08-10T05:14:54.340Z,568.00
2023-08-10T05:15:54.352Z,584.00
2023-08-10T05:16:54.314Z,600.00
2023-08-10T05:17:54.370Z,620.00
2023-08-10T05:18:54.294Z,644.00
2023-08-10T05:19:54.282Z,676.00
2023-08-10T05:20:54.256Z,716.00
2023-08-10T05:21:54.247Z,764.00
2023-08-10T05:22:54.265Z,792.00
2023-08-10T05:23:54.219Z,808.00
2023-08-10T05:24:54.206Z,832.00
2023-08-10T05:25:54.192Z,848.00
2023-08-10T05:26:54.188Z,852.00
2023-08-10T05:27:54.172Z,852.00
2023-08-10T05:28:54.151Z,844.00
2023-08-10T05:29:54.181Z,828.00
2023-08-10T05:30:54.121Z,816.00
2023-08-10T05:31:54.244Z,796.00
2023-08-10T05:32:54.105Z,784.00
2023-08-10T05:33:54.081Z,780.00
2023-08-10T05:34:54.068Z,792.00
2023-08-10T05:35:54.049Z,816.00
2023-08-10T05:36:54.046Z,836.00
2023-08-10T05:37:54.032Z,840.00
2023-08-10T05:38:54.040Z,840.00
2023-08-10T05:39:54.001Z,848.00
2023-08-10T05:40:53.989Z,880.00
2023-08-10T05:41:53.977Z,916.00
2023-08-10T05:42:53.965Z,944.00
2023-08-10T05:43:53.950Z,964.00
2023-08-10T05:44:53.937Z,980.00
2023-08-10T05:45:53.982Z,1000.00
2023-08-10T05:46:53.902Z,1020.00
2023-08-10T05:47:53.912Z,1052.00
2023-08-10T05:48:53.881Z,1124.00
2023-08-10T05:49:53.870Z,1292.00
2023-08-10T05:50:53.929Z,1604.00
2023-08-10T05:51:53.848Z,2160.00
2023-08-10T05:52:53.838Z,2004.00
2023-08-10T05:53:53.820Z,1284.00
2023-08-10T05:54:53.912Z,1168.00
2023-08-10T05:55:53.783Z,1164.00
2023-08-10T05:56:53.788Z,1172.00
2023-08-10T05:57:53.775Z,1196.00
2023-08-10T05:58:53.757Z,1220.00
2023-08-10T05:59:53.729Z,1240.00
2023-08-10T06:00:53.764Z,1260.00
2023-08-10T06:01:53.714Z,1272.00
2023-08-10T06:02:53.729Z,1296.00
2023-08-10T06:03:53.707Z,1312.00
2023-08-10T06:04:53.661Z,1328.00
2023-08-10T06:05:53.650Z,1348.00
2023-08-10T06:06:53.638Z,1372.00
2023-08-10T06:07:53.656Z,1432.00
2023-08-10T06:08:53.613Z,1540.00
2023-08-10T06:09:53.595Z,1752.00
2023-08-10T06:10:53.693Z,2344.00
2023-08-10T06:11:53.568Z,1824.00
2023-08-10T06:12:53.552Z,1996.00
2023-08-10T06:13:53.533Z,3772.00
2023-08-10T06:14:53.522Z,3108.00
2023-08-10T06:15:53.536Z,1772.00
2023-08-10T06:16:53.495Z,1820.00
2023-08-10T06:17:53.512Z,1788.00
2023-08-10T06:18:53.485Z,1740.00
2023-08-10T06:19:53.489Z,1704.00
2023-08-10T06:20:53.447Z,1644.00
2023-08-10T06:21:53.430Z,1628.00
2023-08-10T06:22:53.427Z,1612.00
2023-08-10T06:23:53.417Z,1600.00
2023-08-10T06:24:53.389Z,1592.00
2023-08-10T06:25:53.383Z,1592.00
2023-08-10T06:26:53.394Z,1612.00
2023-08-10T06:27:53.357Z,1640.00
2023-08-10T06:28:53.342Z,1644.00
2023-08-10T06:29:53.325Z,1664.00
2023-08-10T06:30:53.367Z,1696.00
2023-08-10T06:31:53.307Z,1728.00
2023-08-10T06:32:53.303Z,1756.00
2023-08-10T06:33:53.268Z,1792.00
2023-08-10T06:34:53.252Z,1832.00
2023-08-10T06:35:53.237Z,1856.00
2023-08-10T06:36:53.238Z,1920.00
2023-08-10T06:37:53.217Z,1972.00
2023-08-10T06:38:53.200Z,2028.00
2023-08-10T06:39:53.184Z,2048.00
2023-08-10T06:40:53.172Z,2040.00
2023-08-10T06:41:53.161Z,2044.00
2023-08-10T06:42:53.390Z,2072.00
2023-08-10T06:43:53.134Z,2068.00
2023-08-10T06:44:53.142Z,2060.00
2023-08-10T06:45:53.106Z,2064.00
2023-08-10T06:46:53.138Z,2016.00
2023-08-10T06:47:53.112Z,1964.00
2023-08-10T06:48:53.072Z,1928.00
2023-08-10T06:49:53.048Z,1876.00
2023-08-10T06:50:53.036Z,1816.00
2023-08-10T06:51:53.024Z,1784.00
2023-08-10T06:52:53.009Z,1756.00
2023-08-10T06:53:53.003Z,1748.00
2023-08-10T06:54:52.988Z,1748.00
2023-08-10T06:55:58.637Z,1732.00
2023-08-10T06:56:53.986Z,1752.00
2023-08-10T06:57:52.943Z,1784.00
2023-08-10T07:00:52.933Z,1856.00
2023-08-10T07:01:52.929Z,1948.00
2023-08-10T07:02:52.905Z,1984.00
2023-08-10T07:03:52.856Z,2024.00
2023-08-10T07:04:52.870Z,2156.00
2023-08-10T07:05:52.836Z,2196.00
2023-08-10T07:06:52.823Z,2188.00
2023-08-10T07:07:52.807Z,2356.00
2023-08-10T07:08:52.804Z,2440.00
2023-08-10T07:09:52.780Z,2540.00
2023-08-10T07:10:52.785Z,2628.00
2023-08-10T07:11:52.754Z,2704.00
2023-08-10T07:12:52.744Z,2860.00
2023-08-10T07:13:52.721Z,2980.00
2023-08-10T07:14:52.751Z,3132.00
2023-08-10T07:15:52.700Z,3344.00
2023-08-10T07:16:52.706Z,3492.00
2023-08-10T07:17:52.702Z,3580.00
2023-08-10T07:18:52.672Z,3664.00
2023-08-10T07:19:52.649Z,3772.00
2023-08-10T07:20:52.637Z,3872.00
2023-08-10T07:21:52.647Z,3932.00
2023-08-10T07:22:52.609Z,3932.00
2023-08-10T07:23:52.591Z,4020.00
2023-08-10T07:24:52.608Z,4116.00
2023-08-10T07:25:52.569Z,4176.00
2023-08-10T07:26:52.552Z,4244.00
2023-08-10T07:27:52.592Z,4428.00
2023-08-10T07:28:52.526Z,4764.00
2023-08-10T07:29:52.506Z,4688.00
2023-08-10T07:30:52.578Z,4860.00
2023-08-10T07:31:52.496Z,4920.00
2023-08-10T07:32:52.592Z,4976.00
2023-08-10T07:33:52.454Z,5076.00
2023-08-10T07:34:52.472Z,5076.00
2023-08-10T07:35:52.544Z,5180.00
2023-08-10T07:36:52.487Z,5788.00
2023-08-10T07:37:52.516Z,6608.00
2023-08-10T07:38:52.397Z,6676.00
2023-08-10T07:39:52.387Z,5484.00
2023-08-10T07:40:52.505Z,4868.00
2023-08-10T07:41:52.351Z,4788.00
2023-08-10T07:42:52.346Z,4680.00
2023-08-10T07:43:52.327Z,5300.00
2023-08-10T07:44:52.330Z,5368.00
2023-08-10T07:45:52.326Z,5484.00
2023-08-10T07:46:52.340Z,6152.00
2023-08-10T07:47:52.291Z,5684.00
2023-08-10T07:48:52.253Z,6340.00
2023-08-10T07:49:52.243Z,6772.00
2023-08-10T07:50:52.228Z,8368.00
2023-08-10T07:51:52.216Z,6264.00
2023-08-10T07:52:52.203Z,6904.00
2023-08-10T07:53:52.204Z,4936.00
2023-08-10T07:54:52.176Z,5392.00
2023-08-10T07:55:52.161Z,5772.00
2023-08-10T07:56:52.168Z,5696.00
2023-08-10T07:57:52.136Z,5532.00
2023-08-10T07:58:52.121Z,6148.00
2023-08-10T07:59:52.113Z,6728.00
2023-08-10T08:00:52.105Z,7600.00
2023-08-10T08:01:52.194Z,6924.00
2023-08-10T08:02:52.178Z,6752.00
2023-08-10T08:03:52.184Z,6924.00
2023-08-10T08:04:53.671Z,6840.00
2023-08-10T08:05:52.032Z,6260.00
2023-08-10T08:06:52.051Z,7768.00
2023-08-10T08:07:52.008Z,6696.00
2023-08-10T08:08:51.990Z,7456.00
2023-08-10T08:09:51.981Z,7272.00
2023-08-10T08:10:51.972Z,7432.00
2023-08-10T08:11:51.945Z,7532.00
2023-08-10T08:12:51.933Z,7040.00
2023-08-10T08:13:51.920Z,6684.00
2023-08-10T08:14:51.906Z,6056.00
2023-08-10T08:15:51.888Z,5856.00
2023-08-10T08:16:51.898Z,7296.00
2023-08-10T08:17:51.921Z,6228.00
2023-08-10T08:18:51.876Z,6236.00
2023-08-10T08:19:51.840Z,5996.00
2023-08-10T08:20:51.828Z,6784.00
2023-08-10T08:21:51.808Z,8800.00
2023-08-10T08:22:51.808Z,6636.00
2023-08-10T08:23:51.789Z,6448.00
2023-08-10T08:24:51.772Z,9276.00
2023-08-10T08:25:51.761Z,7060.00
2023-08-10T08:26:51.758Z,6612.00
2023-08-10T08:27:51.732Z,8052.00
2023-08-10T08:28:51.728Z,50912.00
2023-08-10T08:29:51.707Z,19072.00
2023-08-10T08:30:51.693Z,19488.00
2023-08-10T08:31:52.495Z,53152.00
2023-08-10T08:32:52.134Z,42976.00
2023-08-10T08:33:51.730Z,29152.00
2023-08-10T08:34:51.671Z,52064.00
2023-08-10T08:35:51.633Z,24672.00
2023-08-10T08:36:51.621Z,48704.00
2023-08-10T08:37:51.605Z,33088.00
2023-08-10T08:38:51.594Z,38976.00
2023-08-10T08:39:51.581Z,49184.00
2023-08-10T08:40:51.573Z,48960.00
2023-08-10T08:41:51.555Z,52576.00
2023-08-10T08:42:51.536Z,48928.00
2023-08-10T08:43:51.522Z,48800.00
2023-08-10T08:44:51.508Z,49184.00
2023-08-10T08:45:51.523Z,46624.00
2023-08-10T08:46:51.635Z,28064.00
2023-08-10T08:47:51.485Z,45632.00
2023-08-10T08:48:51.456Z,31232.00
2023-08-10T08:49:51.445Z,52032.00
2023-08-10T08:50:51.460Z,54272.00
2023-08-10T08:51:51.418Z,52128.00
2023-08-10T08:52:51.428Z,48800.00
2023-08-10T08:53:51.407Z,51296.00
2023-08-10T08:54:51.386Z,52288.00
2023-08-10T08:55:51.370Z,53152.00
2023-08-10T08:56:51.358Z,53600.00
2023-08-10T08:57:51.340Z,56064.00
2023-08-10T08:58:51.478Z,53216.00
2023-08-10T08:59:51.315Z,55232.00
2023-08-10T09:00:51.533Z,56640.00
2023-08-10T09:01:51.806Z,53152.00
2023-08-10T09:02:51.550Z,51328.00
2023-08-10T09:03:51.365Z,56800.00
2023-08-10T09:04:51.270Z,54272.00
2023-08-10T09:05:51.336Z,54688.00
2023-08-10T09:06:51.251Z,55744.00
2023-08-10T09:07:51.216Z,52288.00
2023-08-10T09:08:51.205Z,59360.00
2023-08-10T09:09:51.194Z,57920.00
2023-08-10T09:10:51.179Z,55808.00
2023-08-10T09:11:51.171Z,54816.00
2023-08-10T09:12:51.156Z,55648.00
2023-08-10T09:13:51.287Z,53536.00
2023-08-10T09:14:51.126Z,55232.00
2023-08-10T09:15:51.122Z,53856.00
2023-08-10T09:16:51.105Z,43680.00
2023-08-10T09:17:51.120Z,26848.00
2023-08-10T09:18:51.078Z,11192.00
2023-08-10T09:19:51.073Z,7036.00
2023-08-10T09:20:51.062Z,6020.00
2023-08-10T09:21:51.042Z,5516.00
2023-08-10T09:22:51.066Z,5232.00
2023-08-10T09:23:51.018Z,5084.00
2023-08-10T09:24:51.006Z,5000.00
2023-08-10T09:25:50.999Z,5088.00
2023-08-10T09:26:50.982Z,5264.00
2023-08-10T09:27:50.968Z,5676.00
2023-08-10T09:28:50.952Z,6572.00
2023-08-10T09:29:50.946Z,10396.00
2023-08-10T09:30:51.003Z,29536.00
2023-08-10T09:31:50.960Z,44192.00
2023-08-10T09:32:50.943Z,45888.00
2023-08-10T09:33:50.902Z,50560.00
2023-08-10T09:34:50.894Z,46816.00
2023-08-10T09:35:50.889Z,48832.00
2023-08-10T09:36:50.862Z,51200.00
2023-08-10T09:37:50.845Z,50592.00
2023-08-10T09:38:50.856Z,49440.00
2023-08-10T09:39:50.833Z,50208.00
2023-08-10T09:40:50.811Z,49984.00
2023-08-10T09:41:50.808Z,45696.00
2023-08-10T09:42:50.795Z,45824.00
2023-08-10T09:43:50.780Z,45920.00
2023-08-10T09:44:50.767Z,49568.00
2023-08-10T09:45:50.797Z,49248.00
2023-08-10T09:46:50.751Z,45312.00
2023-08-10T09:47:50.782Z,49472.00
2023-08-10T09:48:50.716Z,50336.00
2023-08-10T09:49:50.700Z,53056.00
2023-08-10T09:50:50.689Z,52288.00
2023-08-10T09:51:50.675Z,47136.00
2023-08-10T09:52:50.707Z,49824.00
2023-08-10T09:53:50.686Z,48288.00
2023-08-10T09:54:50.662Z,43328.00
2023-08-10T09:55:50.639Z,40480.00
2023-08-10T09:56:50.617Z,39008.00
2023-08-10T09:57:50.609Z,40736.00
2023-08-10T09:58:50.592Z,34784.00
2023-08-10T09:59:50.581Z,28160.00
2023-08-10T10:00:50.600Z,31744.00
2023-08-10T10:01:50.568Z,28928.00
2023-08-10T10:02:50.590Z,22752.00
2023-08-10T10:03:50.580Z,22880.00
2023-08-10T10:04:50.553Z,15872.00
2023-08-10T10:05:50.509Z,10060.00
2023-08-10T10:06:50.502Z,8584.00
2023-08-10T10:07:50.500Z,7804.00
2023-08-10T10:08:50.477Z,7432.00
2023-08-10T10:09:50.473Z,7116.00
2023-08-10T10:10:50.484Z,6832.00
2023-08-10T10:11:50.444Z,6636.00
2023-08-10T10:12:50.431Z,6488.00
2023-08-10T10:13:50.416Z,6400.00
2023-08-10T10:14:50.409Z,6296.00
2023-08-10T10:15:50.456Z,6228.00
2023-08-10T10:16:50.433Z,6192.00
2023-08-10T10:17:50.471Z,6192.00
2023-08-10T10:18:50.368Z,6188.00
2023-08-10T10:19:50.356Z,6220.00
2023-08-10T10:20:50.343Z,6252.00
2023-08-10T10:21:50.324Z,6316.00
2023-08-10T10:22:50.660Z,6424.00
2023-08-10T10:23:50.303Z,6632.00
2023-08-10T10:24:50.291Z,6800.00
2023-08-10T10:25:50.281Z,7140.00
2023-08-10T10:26:50.298Z,7484.00
2023-08-10T10:27:50.263Z,7952.00
2023-08-10T10:28:50.248Z,8576.00
2023-08-10T10:29:50.241Z,9640.00
2023-08-10T10:30:50.464Z,11524.00
2023-08-10T10:31:50.217Z,14912.00
2023-08-10T10:32:50.279Z,17536.00
2023-08-10T10:33:50.339Z,20128.00
2023-08-10T10:34:50.228Z,27008.00
2023-08-10T10:35:50.167Z,29600.00
2023-08-10T10:36:50.153Z,33856.00
2023-08-10T10:37:50.149Z,41504.00
2023-08-10T10:38:50.138Z,45792.00
2023-08-10T10:39:50.130Z,51552.00
2023-08-10T10:40:50.119Z,55488.00
2023-08-10T10:41:50.105Z,59424.00
2023-08-10T10:42:50.114Z,58592.00
2023-08-10T10:43:50.379Z,55680.00
2023-08-10T10:44:50.068Z,54656.00
2023-08-10T10:45:50.166Z,54176.00
2023-08-10T10:46:50.198Z,53536.00
2023-08-10T10:47:50.054Z,55008.00
2023-08-10T10:48:50.021Z,56928.00
2023-08-10T10:49:50.258Z,57472.00
2023-08-10T10:50:50.014Z,57216.00
2023-08-10T10:51:50.098Z,58336.00
2023-08-10T10:52:50.149Z,59680.00
2023-08-10T10:53:50.402Z,61088.00
2023-08-10T10:54:50.004Z,61376.00
2023-08-10T10:55:49.971Z,56512.00
2023-08-10T10:56:49.965Z,57472.00
2023-08-10T10:57:49.934Z,58848.00
2023-08-10T10:58:49.956Z,51712.00
2023-08-10T10:59:49.901Z,49984.00
2023-08-10T11:00:50.276Z,52288.00
2023-08-10T11:01:50.000Z,48672.00
2023-08-10T11:02:49.941Z,46080.00
2023-08-10T11:03:49.867Z,49152.00
2023-08-10T11:04:49.843Z,48640.00
2023-08-10T11:05:50.034Z,45120.00
2023-08-10T11:06:50.179Z,45056.00
2023-08-10T11:07:49.809Z,48256.00
2023-08-10T11:08:49.824Z,49952.00
2023-08-10T11:09:49.780Z,51200.00
2023-08-10T11:10:49.800Z,49824.00
2023-08-10T11:11:49.759Z,40512.00
2023-08-10T11:12:49.741Z,32448.00
2023-08-10T11:13:49.729Z,28608.00
2023-08-10T11:14:49.756Z,19136.00
2023-08-10T11:15:49.706Z,11284.00
2023-08-10T11:16:49.811Z,7000.00
2023-08-10T11:17:50.420Z,5588.00
2023-08-10T11:18:49.668Z,5028.00
2023-08-10T11:19:49.657Z,4412.00
2023-08-10T11:20:49.644Z,3968.00
2023-08-10T11:21:49.765Z,3676.00
2023-08-10T11:22:49.619Z,3400.00
2023-08-10T11:23:49.616Z,3208.00
2023-08-10T11:24:49.597Z,2976.00
2023-08-10T11:25:49.587Z,2896.00
2023-08-10T11:26:49.584Z,2740.00
2023-08-10T11:27:49.602Z,2752.00
2023-08-10T11:28:49.557Z,2704.00
2023-08-10T11:29:49.546Z,2640.00
2023-08-10T11:30:49.621Z,2608.00
2023-08-10T11:31:52.071Z,2564.00
2023-08-10T11:32:49.543Z,2504.00
2023-08-10T11:33:49.524Z,2484.00
2023-08-10T11:34:49.552Z,2480.00
2023-08-10T11:35:49.463Z,2376.00
2023-08-10T11:36:49.461Z,2452.00
2023-08-10T11:37:49.445Z,2476.00
2023-08-10T11:38:49.483Z,2340.00
2023-08-10T11:39:49.421Z,2356.00
2023-08-10T11:40:49.427Z,2492.00
2023-08-10T11:41:49.409Z,2140.00
2023-08-10T11:42:49.392Z,2152.00
2023-08-10T11:43:49.370Z,2096.00
2023-08-10T11:44:49.363Z,2092.00
2023-08-10T11:45:49.375Z,2020.00
2023-08-10T11:46:49.422Z,2072.00
2023-08-10T11:48:50.332Z,2036.00
2023-08-10T11:49:49.291Z,1988.00
2023-08-10T11:50:49.280Z,1916.00
2023-08-10T11:51:49.269Z,1880.00
2023-08-10T11:52:49.257Z,1880.00
2023-08-10T11:53:49.248Z,1860.00
2023-08-10T11:54:49.233Z,1876.00
2023-08-10T11:55:49.233Z,1908.00
2023-08-10T11:56:49.218Z,2000.00
2023-08-10T11:57:49.201Z,1952.00
2023-08-10T11:58:49.182Z,2380.00
2023-08-10T11:59:49.175Z,1884.00
2023-08-10T12:00:49.159Z,2004.00
2023-08-10T12:01:49.207Z,1892.00
2023-08-10T12:02:49.178Z,3460.00
2023-08-10T12:03:50.004Z,21280.00
2023-08-10T12:04:49.150Z,6696.00
2023-08-10T12:05:49.098Z,1848.00
2023-08-10T12:06:49.082Z,1928.00
2023-08-10T12:07:49.069Z,2064.00
2023-08-10T12:08:49.057Z,1996.00
2023-08-10T12:09:49.174Z,1976.00
2023-08-10T12:10:49.049Z,1956.00
2023-08-10T12:11:49.758Z,1924.00
2023-08-10T12:12:49.013Z,1848.00
2023-08-10T12:13:49.001Z,1952.00
2023-08-10T12:14:49.186Z,1796.00
2023-08-10T12:15:48.973Z,1756.00
2023-08-10T12:16:48.958Z,2012.00
2023-08-10T12:17:48.990Z,1836.00
2023-08-10T12:18:49.275Z,1764.00
2023-08-10T12:19:48.920Z,1804.00
2023-08-10T12:20:49.125Z,2296.00
2023-08-10T12:21:48.896Z,1960.00
2023-08-10T12:22:48.887Z,1936.00
2023-08-10T12:23:48.874Z,1980.00
2023-08-10T12:24:48.856Z,1832.00
2023-08-10T12:25:48.840Z,1884.00
2023-08-10T12:26:49.851Z,2028.00
2023-08-10T12:27:49.317Z,2040.00
2023-08-10T12:28:50.772Z,2032.00
2023-08-10T12:29:48.801Z,2136.00
2023-08-10T12:30:48.777Z,2000.00
2023-08-10T12:31:48.821Z,2096.00